Time;durP1;ratioP1;P1;durP2;ratioP2;P2;SDS_P1;SDS_P2;PMS_P1;PMS_P2;Temp;Humidity;BMP_temperature;BMP_pressure;BME280_temperature;BME280_humidity;BME280_pressure;Samples;Min_cycle;Max_cycle;Signal;HPM_P1;HPM_P2
2021/09/05 00:01:44;;;;;;;25.60;12.25;;;;;;;15.60;79.12;100543.28;5030719;28;20028;-64
2021/09/05 00:04:09;;;;;;;22.85;11.15;;;;;;;15.56;79.30;100534.66;5030495;28;20053;-64
2021/09/05 00:06:35;;;;;;;26.63;11.20;;;;;;;15.59;79.75;100544.31;5031889;28;20083;-64
2021/09/05 00:09:00;;;;;;;25.98;12.15;;;;;;;15.58;80.14;100537.22;5032108;28;20030;-64
2021/09/05 00:11:26;;;;;;;22.63;10.65;;;;;;;15.62;79.91;100552.94;5031662;28;20032;-65
2021/09/05 00:13:52;;;;;;;25.95;10.93;;;;;;;15.56;79.49;100556.28;5046626;28;20036;-64
2021/09/05 00:16:18;;;;;;;24.63;12.80;;;;;;;15.58;78.24;100554.25;5021094;28;20036;-64
2021/09/05 00:18:44;;;;;;;21.27;12.38;;;;;;;15.54;77.80;100561.00;5011252;28;20501;-64
2021/09/05 00:21:09;;;;;;;27.35;12.00;;;;;;;15.44;78.17;100546.75;5009988;28;20057;-64
2021/09/05 00:23:35;;;;;;;24.88;12.02;;;;;;;15.44;78.69;100562.97;5016770;28;20026;-64
2021/09/05 00:26:00;;;;;;;30.75;14.48;;;;;;;15.45;79.16;100559.25;5031032;28;20037;-64
2021/09/05 00:28:26;;;;;;;30.80;13.80;;;;;;;15.42;78.63;100564.97;5031224;28;20021;-65
2021/09/05 00:30:51;;;;;;;28.17;14.07;;;;;;;15.38;79.13;100568.19;5031063;28;20490;-64
2021/09/05 00:33:16;;;;;;;27.30;13.85;;;;;;;15.37;79.28;100563.75;5030826;28;20033;-64
2021/09/05 00:35:42;;;;;;;36.58;15.45;;;;;;;15.32;79.42;100564.19;5030968;28;20490;-66
2021/09/05 00:38:07;;;;;;;34.15;15.23;;;;;;;15.25;79.56;100556.91;5030740;28;20454;-65
2021/09/05 00:40:33;;;;;;;31.52;14.75;;;;;;;15.26;79.67;100575.66;5030829;28;20517;-65
2021/09/05 00:42:58;;;;;;;27.75;13.77;;;;;;;15.24;79.57;100564.16;5031116;28;20546;-66
2021/09/05 00:45:24;;;;;;;30.30;13.63;;;;;;;15.18;79.67;100548.59;5030831;28;20525;-65
2021/09/05 00:47:49;;;;;;;26.27;12.23;;;;;;;15.25;79.43;100555.03;5029516;28;20363;-65
2021/09/05 00:50:15;;;;;;;25.13;13.30;;;;;;;15.25;79.33;100562.31;5035486;28;20467;-65
2021/09/05 00:52:41;;;;;;;26.05;12.48;;;;;;;15.25;79.39;100563.16;5031112;28;20424;-65
2021/09/05 00:55:07;;;;;;;20.88;11.98;;;;;;;15.27;79.34;100571.94;5030935;28;20032;-65
2021/09/05 00:57:33;;;;;;;21.70;11.93;;;;;;;15.25;78.60;100565.03;5017888;28;20037;-65
2021/09/05 00:59:59;;;;;;;21.77;11.85;;;;;;;15.27;78.38;100571.94;5011344;28;20038;-65
2021/09/05 01:02:24;;;;;;;20.75;11.60;;;;;;;15.29;78.53;100574.50;5011556;28;20025;-65
2021/09/05 01:04:50;;;;;;;22.58;11.20;;;;;;;15.26;78.56;100575.66;5019628;28;20049;-65
2021/09/05 01:07:15;;;;;;;18.33;10.52;;;;;;;15.24;78.95;100583.09;5030235;28;20104;-65
2021/09/05 01:09:41;;;;;;;17.05;10.90;;;;;;;15.24;78.67;100588.47;5030166;28;20390;-65
2021/09/05 01:12:07;;;;;;;22.17;11.27;;;;;;;15.24;79.19;100579.50;5030211;28;20032;-66
2021/09/05 01:14:32;;;;;;;19.80;11.48;;;;;;;15.21;78.86;100583.38;5029958;28;20036;-65
2021/09/05 01:16:58;;;;;;;22.13;12.68;;;;;;;15.15;78.92;100575.91;5045170;28;20033;-65
2021/09/05 01:19:24;;;;;;;20.98;11.90;;;;;;;15.15;79.17;100584.00;5030094;28;20501;-65
2021/09/05 01:21:51;;;;;;;23.50;11.88;;;;;;;15.13;79.28;100587.88;5029951;28;20017;-65
2021/09/05 01:24:19;;;;;;;17.95;10.93;;;;;;;15.10;79.06;100590.91;5030107;28;20033;-65
2021/09/05 01:26:47;;;;;;;18.83;9.73;;;;;;;15.09;79.32;100590.03;5029894;28;20033;-65
2021/09/05 01:29:14;;;;;;;13.23;8.60;;;;;;;15.08;79.17;100585.66;5029951;28;20386;-65
2021/09/05 01:31:45;;;;;;;12.55;8.80;;;;;;;15.06;79.50;100593.06;5029078;28;20466;-65
2021/09/05 01:34:12;;;;;;;14.25;8.45;;;;;;;15.05;79.63;100594.06;5029953;28;20028;-65
2021/09/05 01:36:39;;;;;;;13.45;9.40;;;;;;;15.06;79.71;100592.22;5029706;28;20564;-65
2021/09/05 01:39:06;;;;;;;13.10;8.77;;;;;;;15.08;79.57;100596.47;5029605;28;20092;-66
2021/09/05 01:41:31;;;;;;;12.05;8.88;;;;;;;15.09;79.86;100605.44;5029633;28;20848;-65
2021/09/05 01:44:02;;;;;;;13.20;8.40;;;;;;;15.10;79.87;100616.06;5029907;28;20029;-65
2021/09/05 01:46:27;;;;;;;12.55;9.02;;;;;;;15.08;80.28;100603.72;5029521;28;20379;-65
2021/09/05 01:48:53;;;;;;;13.60;8.85;;;;;;;15.04;80.24;100597.78;5029652;28;20029;-65
2021/09/05 01:51:18;;;;;;;13.18;9.25;;;;;;;15.06;80.65;100595.75;5029398;28;20040;-65
2021/09/05 01:53:44;;;;;;;10.95;8.70;;;;;;;15.14;80.95;100608.50;5029628;28;20040;-65
2021/09/05 01:56:09;;;;;;;14.52;9.60;;;;;;;15.15;81.60;100604.78;5029409;28;20022;-65
2021/09/05 01:58:35;;;;;;;12.27;8.88;;;;;;;15.16;82.15;100612.72;5044799;28;20044;-66
2021/09/05 02:01:00;;;;;;;13.00;9.55;;;;;;;15.19;82.31;100607.00;5029850;28;20077;-65
2021/09/05 02:03:26;;;;;;;13.75;9.48;;;;;;;15.20;82.81;100616.84;5030363;28;20130;-65
2021/09/05 02:05:51;;;;;;;13.77;10.60;;;;;;;15.22;83.19;100605.88;5045235;28;20049;-65
2021/09/05 02:08:16;;;;;;;18.15;9.98;;;;;;;15.20;83.29;100607.88;5029996;28;20029;-65
2021/09/05 02:10:42;;;;;;;12.48;9.60;;;;;;;15.27;83.95;100625.16;5030041;28;20017;-66
2021/09/05 02:13:08;;;;;;;15.05;9.52;;;;;;;15.21;84.10;100613.13;5045290;28;20025;-65
2021/09/05 02:15:33;;;;;;;16.67;10.40;;;;;;;15.30;84.64;100628.41;5029692;28;20036;-65
2021/09/05 02:17:58;;;;;;;15.63;10.35;;;;;;;15.29;84.72;100628.56;5029309;28;20029;-65
2021/09/05 02:20:24;;;;;;;16.25;10.70;;;;;;;15.32;84.86;100631.78;5029619;28;20037;-65
2021/09/05 02:22:50;;;;;;;13.70;10.85;;;;;;;15.32;85.19;100628.25;5030108;28;20037;-65
2021/09/05 02:25:15;;;;;;;15.68;11.55;;;;;;;15.30;85.50;100627.53;5029916;28;20029;-65
2021/09/05 02:27:41;;;;;;;15.55;10.80;;;;;;;15.30;85.72;100625.69;5029944;28;20041;-65
2021/09/05 02:30:09;;;;;;;16.63;12.45;;;;;;;15.29;85.79;100625.84;5045061;28;20497;-65
2021/09/05 02:32:35;;;;;;;17.08;12.05;;;;;;;15.26;86.35;100629.69;5029641;28;20504;-65
2021/09/05 02:35:00;;;;;;;20.15;12.85;;;;;;;15.30;86.60;100635.66;5029783;28;20030;-65
2021/09/05 02:37:26;;;;;;;16.40;13.05;;;;;;;15.28;87.14;100630.41;5045216;28;20445;-65
2021/09/05 02:39:51;;;;;;;21.35;13.77;;;;;;;15.30;87.41;100630.25;5029905;28;20432;-65
2021/09/05 02:42:16;;;;;;;17.98;13.57;;;;;;;15.30;87.65;100635.66;5030654;28;20478;-66
2021/09/05 02:44:42;;;;;;;18.70;14.52;;;;;;;15.25;88.05;100621.78;5033356;28;20024;-65
2021/09/05 02:47:08;;;;;;;19.20;14.77;;;;;;;15.19;88.28;100614.28;5033398;28;20159;-65
2021/09/05 02:49:33;;;;;;;21.98;15.10;;;;;;;15.26;88.58;100632.41;5033386;28;20673;-65
2021/09/05 02:51:59;;;;;;;20.30;14.45;;;;;;;15.21;88.68;100623.94;5033430;28;20025;-65
2021/09/05 02:54:24;;;;;;;19.77;13.77;;;;;;;15.25;88.98;100636.09;5033360;28;20037;-65
2021/09/05 02:56:49;;;;;;;22.38;14.77;;;;;;;15.25;89.11;100633.41;5033434;28;20033;-65
2021/09/05 02:59:16;;;;;;;19.48;14.80;;;;;;;15.25;89.21;100628.00;5033112;28;20051;-65
2021/09/05 03:01:42;;;;;;;19.83;14.73;;;;;;;15.18;89.28;100623.38;5033283;28;20450;-65
2021/09/05 03:04:07;;;;;;;21.35;14.73;;;;;;;15.25;89.76;100632.59;5028109;28;20064;-65
2021/09/05 03:06:33;;;;;;;20.90;14.95;;;;;;;15.21;90.23;100632.03;5013351;28;20045;-65
2021/09/05 03:08:58;;;;;;;24.75;16.15;;;;;;;15.23;90.72;100634.56;5032735;28;20030;-65
2021/09/05 03:11:24;;;;;;;21.20;15.60;;;;;;;15.23;90.95;100638.13;5033062;28;20029;-64
2021/09/05 03:13:49;;;;;;;24.67;16.30;;;;;;;15.17;91.07;100625.25;5031470;28;20029;-64
2021/09/05 03:16:14;;;;;;;22.02;16.33;;;;;;;15.23;91.28;100642.69;5032959;28;20750;-64
2021/09/05 03:18:40;;;;;;;26.88;16.35;;;;;;;15.25;91.44;100632.59;5032723;28;20087;-65
2021/09/05 03:21:06;;;;;;;20.20;15.95;;;;;;;15.25;91.52;100637.97;5032540;28;20049;-64
2021/09/05 03:23:31;;;;;;;22.58;16.35;;;;;;;15.24;91.50;100637.13;5015447;28;20034;-64
2021/09/05 03:25:57;;;;;;;23.17;16.02;;;;;;;15.24;91.69;100637.13;5013126;28;20026;-64
2021/09/05 03:28:23;;;;;;;22.17;16.70;;;;;;;15.24;91.96;100638.97;5011442;28;20426;-64
2021/09/05 03:30:48;;;;;;;22.25;15.38;;;;;;;15.20;92.41;100632.19;5013150;28;20123;-64
2021/09/05 03:33:13;;;;;;;20.77;15.82;;;;;;;15.19;92.27;100642.13;5012734;28;20034;-64
2021/09/05 03:35:39;;;;;;;22.17;15.38;;;;;;;15.19;92.66;100647.53;5012845;28;20037;-64
2021/09/05 03:38:04;;;;;;;22.27;16.15;;;;;;;15.13;92.91;100637.34;5012692;28;20022;-65
2021/09/05 03:40:30;;;;;;;21.73;16.05;;;;;;;15.19;93.13;100655.66;5012858;28;20038;-65
2021/09/05 03:42:55;;;;;;;22.38;16.50;;;;;;;15.11;93.54;100625.00;5012858;28;20037;-64
2021/09/05 03:45:21;;;;;;;22.67;16.00;;;;;;;15.20;93.37;100654.66;5012572;28;20073;-65
2021/09/05 03:47:46;;;;;;;24.08;17.50;;;;;;;15.22;93.61;100654.50;5012632;28;20046;-65
2021/09/05 03:50:12;;;;;;;23.15;17.85;;;;;;;15.23;93.74;100656.19;5011581;28;20083;-65
2021/09/05 03:52:38;;;;;;;22.88;17.30;;;;;;;15.18;93.80;100651.25;5012455;28;20026;-64
2021/09/05 03:55:05;;;;;;;25.48;17.58;;;;;;;15.23;94.07;100661.59;5011737;28;20034;-65
2021/09/05 03:57:31;;;;;;;24.70;17.67;;;;;;;15.23;94.12;100654.34;5012120;28;20021;-64
2021/09/05 03:59:56;;;;;;;23.05;17.23;;;;;;;15.24;94.17;100652.47;5011123;28;20509;-65
2021/09/05 04:02:22;;;;;;;25.10;17.30;;;;;;;15.27;94.23;100657.56;5012288;28;20033;-64
2021/09/05 04:04:48;;;;;;;24.08;16.80;;;;;;;15.27;94.52;100665.69;5027102;28;20075;-64
2021/09/05 04:07:17;;;;;;;27.20;18.17;;;;;;;15.26;94.78;100659.41;5031917;28;20029;-65
2021/09/05 04:12:26;;;;;;;23.88;17.90;;;;;;;15.32;94.68;100676.88;5031305;28;20028;-65
2021/09/05 04:14:52;;;;;;;26.08;16.85;;;;;;;15.31;94.60;100675.16;5031340;28;20033;-66
2021/09/05 04:17:17;;;;;;;22.70;17.10;;;;;;;15.33;94.43;100687.53;5031073;28;20474;-66
2021/09/05 04:19:43;;;;;;;22.42;18.17;;;;;;;15.35;94.57;100684.69;5029956;28;20549;-66
2021/09/05 04:22:08;;;;;;;25.38;18.70;;;;;;;15.35;95.10;100684.69;5031156;28;20025;-66
2021/09/05 04:24:34;;;;;;;25.73;18.52;;;;;;;15.28;94.89;100681.75;5030919;28;20053;-66
2021/09/05 04:26:59;;;;;;;23.88;18.42;;;;;;;15.37;95.24;100686.25;5031283;28;20087;-66
2021/09/05 04:29:27;;;;;;;26.42;19.20;;;;;;;15.34;95.32;100685.66;5028605;28;20101;-67
2021/09/05 04:31:53;;;;;;;23.17;18.38;;;;;;;15.40;95.29;100696.75;5024262;28;20105;-66
2021/09/05 04:34:18;;;;;;;26.27;18.58;;;;;;;15.40;95.19;100699.47;5030876;28;20108;-65
2021/09/05 04:36:44;;;;;;;25.35;18.70;;;;;;;15.41;95.24;100701.16;5030846;28;20528;-64
2021/09/05 04:39:09;;;;;;;25.42;19.13;;;;;;;15.43;95.32;100711.81;5030758;28;20026;-65
2021/09/05 04:41:35;;;;;;;25.65;17.95;;;;;;;15.43;95.06;100715.38;5029961;28;20021;-65
2021/09/05 04:44:00;;;;;;;23.00;18.67;;;;;;;15.42;95.16;100713.66;5030286;28;20116;-65
2021/09/05 04:46:26;;;;;;;27.98;18.98;;;;;;;15.44;95.11;100721.59;5031030;28;20151;-65
2021/09/05 04:48:51;;;;;;;26.08;18.75;;;;;;;15.46;95.17;100728.56;5031197;28;20733;-66
2021/09/05 04:51:17;;;;;;;27.25;19.80;;;;;;;15.45;94.84;100732.25;5031121;28;20063;-66
2021/09/05 04:53:42;;;;;;;26.80;19.25;;;;;;;15.45;94.48;100716.03;5031052;28;20032;-66
2021/09/05 04:56:08;;;;;;;28.23;19.77;;;;;;;15.50;94.42;100737.19;5030448;28;20036;-65
2021/09/05 04:58:33;;;;;;;26.60;19.52;;;;;;;15.50;94.41;100723.69;5030542;28;20064;-66
2021/09/05 05:00:59;;;;;;;23.73;17.83;;;;;;;15.42;94.73;100710.94;5030619;28;20117;-66
2021/09/05 05:03:24;;;;;;;24.83;17.70;;;;;;;15.53;94.34;100728.78;5019635;28;20030;-66
2021/09/05 05:05:50;;;;;;;24.00;18.42;;;;;;;15.52;94.46;100730.66;5009574;28;20043;-66
2021/09/05 05:08:15;;;;;;;23.45;17.98;;;;;;;15.55;94.18;100735.72;5010587;28;20026;-66
2021/09/05 05:10:40;;;;;;;26.50;17.90;;;;;;;15.56;93.95;100740.16;5028890;28;20075;-66
2021/09/05 05:13:06;;;;;;;29.67;19.80;;;;;;;15.60;93.66;100744.22;5030021;28;20033;-66
2021/09/05 05:15:31;;;;;;;26.17;19.45;;;;;;;15.62;93.66;100741.38;5030259;28;20033;-66
2021/09/05 05:17:57;;;;;;;25.83;18.38;;;;;;;15.64;93.69;100747.47;5029991;28;20025;-65
2021/09/05 05:20:22;;;;;;;21.63;17.50;;;;;;;15.62;93.67;100735.97;5029890;28;20048;-66
2021/09/05 05:22:48;;;;;;;26.48;18.75;;;;;;;15.70;93.49;100747.69;5030062;28;20168;-66
2021/09/05 05:25:14;;;;;;;22.98;17.75;;;;;;;15.74;93.27;100749.06;5029759;28;20025;-66
2021/09/05 05:27:39;;;;;;;24.67;18.02;;;;;;;15.79;92.79;100749.47;5029779;28;20030;-66
2021/09/05 05:30:06;;;;;;;26.17;18.70;;;;;;;15.79;92.62;100746.75;5029636;28;20037;-66
2021/09/05 05:32:32;;;;;;;25.23;17.55;;;;;;;15.85;91.90;100756.09;5030060;28;20029;-66
2021/09/05 05:34:57;;;;;;;28.20;18.92;;;;;;;15.90;91.63;100760.00;5028805;28;20162;-66
2021/09/05 05:37:23;;;;;;;26.45;17.80;;;;;;;15.96;91.98;100757.69;5030213;28;20613;-66
2021/09/05 05:39:48;;;;;;;25.73;17.92;;;;;;;15.96;91.48;100753.13;5030166;28;20102;-66
2021/09/05 05:42:14;;;;;;;25.80;17.60;;;;;;;16.10;91.19;100771.50;5030311;28;20045;-66
2021/09/05 05:44:40;;;;;;;24.65;17.75;;;;;;;16.22;90.36;100764.78;5030239;28;20044;-66
2021/09/05 05:47:06;;;;;;;26.83;16.55;;;;;;;16.33;89.77;100760.97;5030112;28;20032;-66
2021/09/05 05:49:34;;;;;;;21.80;16.30;;;;;;;16.48;88.63;100753.97;5030223;28;20223;-66
2021/09/05 05:51:59;;;;;;;20.80;15.75;;;;;;;16.58;88.07;100758.28;5008489;28;20061;-66
2021/09/05 05:54:25;;;;;;;21.90;15.23;;;;;;;16.81;86.62;100767.50;5010317;28;20058;-66
2021/09/05 05:56:50;;;;;;;25.05;16.27;;;;;;;16.93;85.28;100765.34;5010561;28;20030;-65
2021/09/05 05:59:16;;;;;;;25.98;16.25;;;;;;;17.02;83.56;100758.91;5010533;28;20030;-65
2021/09/05 06:01:41;;;;;;;26.20;15.90;;;;;;;17.23;82.09;100770.16;5015422;28;20034;-65
2021/09/05 06:04:08;;;;;;;21.20;14.68;;;;;;;17.32;81.36;100758.34;5030049;28;20096;-66
2021/09/05 06:06:34;;;;;;;19.25;14.07;;;;;;;17.55;80.35;100772.97;5030215;28;20045;-65
2021/09/05 06:09:00;;;;;;;20.48;14.80;;;;;;;17.69;78.13;100765.00;5030129;28;20025;-65
2021/09/05 06:11:27;;;;;;;21.65;13.95;;;;;;;17.87;77.47;100764.84;5033685;28;20049;-66
2021/09/05 06:13:52;;;;;;;18.98;14.05;;;;;;;18.05;76.07;100770.91;5010375;28;20030;-66
2021/09/05 06:16:18;;;;;;;19.70;13.38;;;;;;;18.21;75.24;100776.31;5010304;28;20036;-66
2021/09/05 06:18:43;;;;;;;19.25;13.77;;;;;;;18.30;74.13;100767.16;5013728;28;20022;-66
2021/09/05 06:21:09;;;;;;;19.98;13.50;;;;;;;18.49;72.59;100774.94;5014123;28;20069;-65
2021/09/05 06:23:34;;;;;;;19.38;12.95;;;;;;;18.62;71.65;100777.97;5014297;28;20041;-66
2021/09/05 06:26:00;;;;;;;21.10;12.80;;;;;;;18.75;71.06;100782.81;5014221;28;20088;-65
2021/09/05 06:28:25;;;;;;;18.25;13.23;;;;;;;18.86;70.30;100774.31;5012616;28;20021;-66
2021/09/05 06:30:51;;;;;;;21.45;12.73;;;;;;;19.03;69.68;100774.06;5012846;28;20026;-66
2021/09/05 06:33:16;;;;;;;19.38;12.13;;;;;;;19.21;68.91;100776.47;5006227;28;20088;-66
2021/09/05 06:35:41;;;;;;;21.13;13.10;;;;;;;19.39;67.79;100783.38;5014046;28;20041;-66
2021/09/05 06:38:07;;;;;;;16.75;11.60;;;;;;;19.48;67.23;100767.84;5013784;28;20045;-66
2021/09/05 06:40:33;;;;;;;15.20;12.25;;;;;;;19.67;66.11;100780.97;5012474;28;20026;-67
2021/09/05 06:42:58;;;;;;;18.48;11.88;;;;;;;19.84;65.62;100799.72;5012611;28;20477;-65
2021/09/05 06:45:23;;;;;;;17.95;12.38;;;;;;;19.99;64.29;100791.56;5013695;28;20057;-66
2021/09/05 06:47:49;;;;;;;21.75;12.55;;;;;;;20.15;63.40;100788.75;5013621;28;20700;-66
2021/09/05 06:50:14;;;;;;;16.17;11.65;;;;;;;20.29;62.36;100781.63;5012163;28;20498;-67
2021/09/05 06:52:40;;;;;;;15.15;11.95;;;;;;;20.42;61.63;100788.16;5013657;28;20061;-67
2021/09/05 06:55:06;;;;;;;17.73;11.93;;;;;;;20.60;61.42;100795.97;5012409;28;20022;-67
2021/09/05 06:57:31;;;;;;;17.23;12.82;;;;;;;20.70;60.62;100793.78;5013555;28;20618;-67
2021/09/05 06:59:57;;;;;;;20.80;11.88;;;;;;;20.79;60.24;100787.22;5013647;28;20029;-67
2021/09/05 07:02:22;;;;;;;17.08;10.85;;;;;;;20.98;58.80;100803.00;5013208;28;20029;-67
2021/09/05 07:04:48;;;;;;;19.20;10.60;;;;;;;21.13;57.50;100798.38;5013241;28;20049;-67
2021/09/05 07:07:14;;;;;;;14.98;10.50;;;;;;;21.15;57.14;100788.97;5013465;28;20034;-66
2021/09/05 07:09:40;;;;;;;12.48;9.93;;;;;;;21.29;56.82;100792.72;5013245;28;20028;-67
2021/09/05 07:12:06;;;;;;;14.05;10.13;;;;;;;21.40;56.52;100803.13;5030924;28;20026;-67
2021/09/05 07:14:31;;;;;;;13.63;9.80;;;;;;;21.53;56.01;100804.13;5031574;28;20493;-67
2021/09/05 07:16:57;;;;;;;14.13;10.23;;;;;;;21.65;56.33;100804.44;5032960;28;20047;-67
2021/09/05 07:19:22;;;;;;;14.77;10.70;;;;;;;21.81;55.73;100810.56;5031434;28;20646;-64
2021/09/05 07:21:48;;;;;;;13.68;10.23;;;;;;;21.93;55.07;100808.13;5032685;28;20029;-68
2021/09/05 07:24:14;;;;;;;15.70;10.95;;;;;;;22.08;54.17;100806.16;5031537;28;20099;-67
2021/09/05 07:26:39;;;;;;;12.80;9.55;;;;;;;22.23;54.29;100812.41;5033006;28;20478;-67
2021/09/05 07:29:05;;;;;;;16.35;10.50;;;;;;;22.33;53.88;100805.53;5046906;28;20120;-67
2021/09/05 07:31:31;;;;;;;12.05;9.10;;;;;;;22.52;53.51;100823.16;5032672;28;20120;-67
2021/09/05 07:33:58;;;;;;;12.52;10.55;;;;;;;22.70;52.48;100825.41;5030437;28;20033;-67
2021/09/05 07:36:24;;;;;;;13.48;8.95;;;;;;;22.85;51.25;100823.38;5011416;28;20026;-68
2021/09/05 07:38:49;;;;;;;12.70;9.75;;;;;;;23.01;50.07;100828.50;5011367;28;20034;-67
2021/09/05 07:41:15;;;;;;;13.82;9.60;;;;;;;23.10;50.37;100836.38;5011198;28;20386;-67
2021/09/05 07:43:41;;;;;;;14.18;8.98;;;;;;;23.20;50.29;100833.25;5022691;28;20040;-67
2021/09/05 07:46:06;;;;;;;13.43;8.82;;;;;;;23.34;49.64;100846.81;5047752;28;20398;-67
2021/09/05 07:48:32;;;;;;;12.10;8.98;;;;;;;;;;5032308;28;20030;-67
2021/09/05 07:50:57;;;;;;;11.18;9.45;;;;;;;23.52;49.25;100829.81;5032145;28;20108;-64
2021/09/05 07:53:23;;;;;;;15.40;10.55;;;;;;;23.71;48.81;100837.25;5032216;28;20040;-65
2021/09/05 07:55:48;;;;;;;11.07;9.23;;;;;;;23.86;48.73;100844.25;5030970;28;20025;-64
2021/09/05 07:58:14;;;;;;;11.95;9.05;;;;;;;24.01;48.01;100825.75;5031957;28;20159;-64
2021/09/05 08:00:39;;;;;;;14.43;9.40;;;;;;;24.24;47.55;100841.78;5031958;28;20030;-64
2021/09/05 08:03:05;;;;;;;12.02;8.90;;;;;;;24.48;47.00;100840.31;5031955;28;20033;-64
2021/09/05 08:05:30;;;;;;;10.95;9.23;;;;;;;24.80;45.91;100844.97;5031709;28;20049;-64
2021/09/05 08:07:56;;;;;;;12.23;8.95;;;;;;;25.31;45.03;100840.41;5032199;28;20037;-65
2021/09/05 08:10:21;;;;;;;11.65;8.98;;;;;;;25.91;43.42;100829.72;5031915;28;20048;-64
2021/09/05 08:12:47;;;;;;;11.10;9.10;;;;;;;26.72;42.04;100838.00;5031923;28;20036;-64
2021/09/05 08:15:12;;;;;;;12.93;8.82;;;;;;;27.69;39.87;100836.84;5031867;28;20037;-66
2021/09/05 08:17:38;;;;;;;10.68;9.27;;;;;;;28.66;38.04;100838.34;5019596;28;20064;-66
2021/09/05 08:20:04;;;;;;;11.23;8.82;;;;;;;29.63;36.55;100813.47;5011839;28;20430;-66
2021/09/05 08:22:29;;;;;;;9.45;8.13;;;;;;;30.66;34.44;100817.50;5011751;28;20036;-66
2021/09/05 08:24:55;;;;;;;13.90;8.80;;;;;;;31.53;32.72;100815.75;5016941;28;20029;-66
2021/09/05 08:27:20;;;;;;;11.90;8.75;;;;;;;32.29;31.62;100827.41;5030284;28;20067;-66
2021/09/05 08:29:46;;;;;;;9.75;8.40;;;;;;;32.80;30.10;100805.56;5031494;28;20053;-64
2021/09/05 08:32:11;;;;;;;10.90;8.55;;;;;;;33.48;29.11;100819.31;5046834;28;20633;-65
2021/09/05 08:34:37;;;;;;;11.02;8.50;;;;;;;33.80;28.64;100812.47;5031362;28;20056;-64
2021/09/05 08:37:03;;;;;;;9.32;8.10;;;;;;;34.37;28.26;100826.25;5031356;28;20091;-65
2021/09/05 08:39:29;;;;;;;10.40;8.07;;;;;;;34.67;27.97;100828.16;5031146;28;20530;-65
2021/09/05 08:41:56;;;;;;;9.98;8.55;;;;;;;34.56;27.37;100824.56;5028546;28;20124;-64
2021/09/05 08:44:23;;;;;;;8.98;8.07;;;;;;;34.52;27.31;100823.44;5011490;28;20087;-65
2021/09/05 08:46:48;;;;;;;10.32;8.55;;;;;;;34.00;27.97;100818.09;5011390;28;20463;-64
2021/09/05 08:49:17;;;;;;;12.25;8.13;;;;;;;33.32;28.90;100825.91;5011548;28;20049;-65
2021/09/05 08:51:44;;;;;;;11.38;8.65;;;;;;;32.89;29.30;100829.84;5011622;28;20113;-65
2021/09/05 08:54:10;;;;;;;11.52;8.00;;;;;;;32.18;31.01;100836.72;5011627;28;20104;-64
2021/09/05 08:56:35;;;;;;;9.88;8.00;;;;;;;31.52;31.74;100839.00;5011484;28;20117;-64
2021/09/05 08:59:00;;;;;;;9.35;8.32;;;;;;;31.06;32.10;100840.34;5011542;28;20171;-65
2021/09/05 09:01:28;;;;;;;9.88;8.05;;;;;;;30.52;32.90;100841.13;5011135;28;20022;-64
2021/09/05 09:04:04;;;;;;;9.70;8.25;;;;;;;30.11;33.47;100839.56;5011179;28;20426;-65
2021/09/05 09:06:38;;;;;;;13.43;7.82;;;;;;;29.69;33.91;100832.66;5011021;28;20072;-65
2021/09/05 09:09:05;;;;;;;9.30;8.38;;;;;;;29.60;33.92;100836.06;5011072;28;20037;-65
2021/09/05 09:11:52;;;;;;;10.43;8.40;;;;;;;29.06;34.61;100836.53;5026062;28;20026;-65
2021/09/05 09:14:20;;;;;;;8.77;7.95;;;;;;;28.86;35.01;100841.59;5011097;28;20037;-65
2021/09/05 09:16:46;;;;;;;10.52;8.63;;;;;;;28.56;35.27;100832.59;5009809;28;20091;-65
2021/09/05 09:19:25;;;;;;;12.43;8.50;;;;;;;28.33;35.99;100841.63;5011122;28;20026;-65
2021/09/05 09:21:51;;;;;;;10.25;8.70;;;;;;;28.20;35.87;100836.31;5010928;28;20091;-65
2021/09/05 09:24:19;;;;;;;10.85;8.10;;;;;;;28.08;36.50;100847.34;5011085;28;20462;-65
2021/09/05 09:27:03;;;;;;;10.90;7.78;;;;;;;28.08;36.13;100847.34;5010771;28;20188;-65
2021/09/05 09:29:29;;;;;;;10.90;8.25;;;;;;;27.88;36.03;100832.16;5013574;28;20437;-65
2021/09/05 09:32:00;;;;;;;10.23;7.78;;;;;;;27.69;36.74;100847.88;5030423;28;20470;-65
2021/09/05 09:34:25;;;;;;;14.00;8.27;;;;;;;27.49;36.73;100840.94;5030384;28;20399;-65
2021/09/05 09:36:59;;;;;;;11.43;8.43;;;;;;;27.44;36.70;100843.56;5026192;28;20026;-65
2021/09/05 09:39:27;;;;;;;10.27;8.23;;;;;;;27.27;37.33;100845.28;5010566;28;20041;-64
2021/09/05 09:41:53;;;;;;;11.57;7.75;;;;;;;27.19;37.77;100851.03;5009404;28;20038;-65
2021/09/05 09:44:18;;;;;;;17.20;7.88;;;;;;;27.08;38.28;100838.88;5010597;28;20055;-65
2021/09/05 09:46:44;;;;;;;10.88;7.93;;;;;;;27.05;37.71;100839.31;5010591;28;20058;-65
2021/09/05 09:49:15;;;;;;;11.93;8.07;;;;;;;27.03;37.93;100835.97;5010485;28;20026;-65
2021/09/05 09:51:41;;;;;;;9.45;8.30;;;;;;;26.99;37.42;100856.78;5009657;28;20553;-65
2021/09/05 09:54:07;;;;;;;10.00;7.57;;;;;;;26.98;37.31;100846.00;5010491;28;20033;-64
2021/09/05 09:56:34;;;;;;;11.25;7.75;;;;;;;26.90;37.75;100835.25;5010322;28;20038;-65
2021/09/05 09:59:02;;;;;;;13.30;9.90;;;;;;;26.80;38.02;100833.06;5025593;28;20467;-65
2021/09/05 10:01:29;;;;;;;11.52;8.70;;;;;;;26.83;38.21;100838.09;5029388;28;20060;-64
2021/09/05 10:03:56;;;;;;;9.82;7.63;;;;;;;26.79;37.75;100834.09;5029525;28;20208;-65
2021/09/05 10:06:27;;;;;;;8.25;7.32;;;;;;;26.75;37.93;100838.38;5029369;28;20433;-65
2021/09/05 10:08:55;;;;;;;11.23;7.22;;;;;;;26.76;37.58;100831.81;5029510;28;20025;-66
2021/09/05 10:11:22;;;;;;;12.60;7.40;;;;;;;26.68;37.57;100836.75;5029418;28;20018;-64
2021/09/05 10:13:49;;;;;;;7.63;6.43;;;;;;;26.61;37.79;100835.94;5029560;28;20479;-65
2021/09/05 10:16:15;;;;;;;8.43;7.53;;;;;;;26.54;38.27;100836.84;5020533;28;20049;-65
2021/09/05 10:18:44;;;;;;;9.48;8.13;;;;;;;26.53;37.97;100837.06;5024778;28;20442;-65
2021/09/05 10:21:12;;;;;;;10.80;8.20;;;;;;;26.46;38.26;100828.03;5009536;28;20034;-65
2021/09/05 10:23:38;;;;;;;10.93;7.80;;;;;;;26.44;38.15;100824.69;5009614;28;20022;-65
2021/09/05 10:26:09;;;;;;;9.68;7.18;;;;;;;26.46;38.48;100831.66;5009758;28;20029;-65
2021/09/05 10:28:48;;;;;;;8.75;7.28;;;;;;;26.49;38.46;100833.94;5010313;28;20025;-65
2021/09/05 10:31:31;;;;;;;9.45;7.65;;;;;;;26.49;38.14;100833.09;5008610;28;20033;-65
2021/09/05 10:33:59;;;;;;;9.52;7.15;;;;;;;26.49;38.11;100825.69;5009745;28;20030;-65
2021/09/05 10:36:27;;;;;;;8.48;7.03;;;;;;;26.47;38.26;100830.56;5009539;28;20026;-65
2021/09/05 10:39:05;;;;;;;14.00;7.28;;;;;;;26.43;38.17;100817.50;5008243;28;20032;-64
2021/09/05 10:41:30;;;;;;;10.10;7.15;;;;;;;26.45;38.17;100826.38;5008011;28;20034;-65
2021/09/05 10:43:58;;;;;;;9.52;7.13;;;;;;;26.40;38.27;100823.44;5009475;28;20036;-64
2021/09/05 10:46:30;;;;;;;11.35;7.28;;;;;;;26.37;38.48;100826.63;5009478;28;20096;-64
2021/09/05 10:48:58;;;;;;;11.40;9.25;;;;;;;26.34;38.49;100827.09;5009766;28;20026;-65
2021/09/05 10:51:26;;;;;;;11.90;7.30;;;;;;;26.29;38.99;100829.69;5009527;28;20049;-64
2021/09/05 10:53:56;;;;;;;11.60;6.88;;;;;;;26.24;38.70;100826.75;5009715;28;20084;-65
2021/09/05 10:56:50;;;;;;;9.20;6.55;;;;;;;26.23;39.39;100833.31;5027191;28;20041;-64
2021/09/05 10:59:23;;;;;;;10.27;7.07;;;;;;;26.15;39.19;100828.94;5011470;28;20363;-65
2021/09/05 11:01:48;;;;;;;7.75;6.90;;;;;;;26.17;39.01;100828.72;5029419;28;20083;-65
2021/09/05 11:04:16;;;;;;;8.60;7.05;;;;;;;26.17;38.50;100837.81;5030411;28;20053;-65
2021/09/05 11:06:50;;;;;;;10.80;6.53;;;;;;;26.15;38.66;100839.13;5031565;28;20375;-65
2021/09/05 11:09:18;;;;;;;9.85;6.78;;;;;;;26.11;38.66;100843.34;5033139;28;20063;-65
2021/09/05 11:12:01;;;;;;;11.98;6.68;;;;;;;26.02;38.80;100834.53;5032803;28;20048;-65
2021/09/05 11:14:40;;;;;;;9.48;7.28;;;;;;;26.04;38.94;100835.16;5011776;28;20030;-65